Time;durP1;ratioP1;P1;durP2;ratioP2;P2;SDS_P1;SDS_P2;PMS_P1;PMS_P2;Temp;Humidity;BMP_temperature;BMP_pressure;BME280_temperature;BME280_humidity;BME280_pressure;Samples;Min_cycle;Max_cycle;Signal;HPM_P1;HPM_P2
2023/10/13 00:00:40;;;;;;;7.03;3.55;;;;;;;20.41;100.00;101915.37;143729;587;47006;-82
2023/10/13 00:03:14;;;;;;;10.60;4.03;;;;;;;20.40;100.00;101916.44;143729;602;45924;-80
2023/10/13 00:05:42;;;;;;;10.88;3.78;;;;;;;20.47;100.00;101917.16;143716;578;48006;-81
2023/10/13 00:08:10;;;;;;;6.12;3.90;;;;;;;20.49;100.00;101906.00;143722;589;47008;-81
2023/10/13 00:10:37;;;;;;;10.02;3.95;;;;;;;20.50;100.00;101911.22;143731;581;46004;-80
2023/10/13 00:13:15;;;;;;;10.02;4.25;;;;;;;20.50;100.00;101904.94;143727;593;46004;-80
2023/10/13 00:15:58;;;;;;;6.85;4.28;;;;;;;20.42;100.00;101901.50;143722;572;47006;-80
2023/10/13 00:21:31;;;;;;;6.32;4.18;;;;;;;20.27;100.00;101910.12;143723;568;48002;-81
2023/10/13 00:24:01;;;;;;;9.90;5.45;;;;;;;20.20;100.00;101895.78;143729;573;45928;-80
2023/10/13 00:26:30;;;;;;;9.45;5.78;;;;;;;20.22;100.00;101896.34;143728;567;46010;-80
2023/10/13 00:29:18;;;;;;;18.55;6.53;;;;;;;20.24;100.00;101890.69;143729;739;45925;-80
2023/10/13 00:31:48;;;;;;;9.45;5.82;;;;;;;20.20;100.00;101889.47;143728;601;48004;-81
2023/10/13 00:37:18;;;;;;;7.55;5.20;;;;;;;20.21;100.00;101886.50;143728;799;46006;-80
2023/10/13 00:39:45;;;;;;;7.78;4.93;;;;;;;20.19;100.00;101885.94;143729;574;45922;-81
2023/10/13 00:42:19;;;;;;;7.32;5.28;;;;;;;20.19;100.00;101896.00;143732;984;45010;-80
2023/10/13 00:44:50;;;;;;;7.75;5.07;;;;;;;20.17;100.00;101889.94;143724;584;47010;-80
2023/10/13 00:47:38;;;;;;;8.90;5.50;;;;;;;20.09;100.00;101888.41;143731;601;45012;-81
2023/10/13 00:50:07;;;;;;;7.32;5.00;;;;;;;20.08;100.00;101892.19;143728;657;45921;-81
2023/10/13 00:52:41;;;;;;;9.07;5.50;;;;;;;20.12;100.00;101898.84;143733;589;46004;-81
2023/10/13 00:55:12;;;;;;;8.82;5.05;;;;;;;20.12;100.00;101891.47;143721;716;49010;-80
2023/10/13 00:57:40;;;;;;;9.18;5.95;;;;;;;20.09;100.00;101885.66;143727;648;47004;-81
2023/10/13 01:00:26;;;;;;;10.25;5.50;;;;;;;20.07;100.00;101893.25;143729;572;45922;-81
2023/10/13 03:00:58;;;;;;;6.57;3.58;;;;;;;19.53;100.00;101875.75;143730;693;46010;-80
2023/10/13 03:03:26;;;;;;;8.23;3.67;;;;;;;19.52;100.00;101873.25;143726;918;47002;-80
2023/10/13 03:05:54;;;;;;;9.15;4.03;;;;;;;19.47;100.00;101873.13;143730;874;46010;-82
2023/10/13 03:08:27;;;;;;;10.10;4.35;;;;;;;19.49;100.00;101868.28;143724;567;48014;-80
2023/10/13 03:10:54;;;;;;;9.52;3.83;;;;;;;19.52;100.00;101870.50;143731;686;45928;-81
2023/10/13 03:13:21;;;;;;;16.10;3.85;;;;;;;19.38;100.00;101873.44;143734;985;45010;-80
2023/10/13 03:15:48;;;;;;;14.05;4.22;;;;;;;19.38;100.00;101872.59;143731;579;45932;-82
2023/10/13 03:18:18;;;;;;;12.85;4.40;;;;;;;19.42;100.00;101872.97;143732;884;45012;-80
2023/10/13 03:20:50;;;;;;;10.20;4.00;;;;;;;19.37;100.00;101876.41;143727;982;47006;-80
2023/10/13 03:23:17;;;;;;;10.30;3.80;;;;;;;19.26;100.00;101872.53;143729;984;47002;-80
2023/10/13 03:25:55;;;;;;;8.88;4.10;;;;;;;19.38;100.00;101872.59;143730;681;45932;-79
2023/10/13 03:28:33;;;;;;;17.15;3.92;;;;;;;19.42;100.00;101873.78;143724;962;48004;-82
2023/10/13 03:31:01;;;;;;;11.30;4.72;;;;;;;19.45;100.00;101873.34;143726;615;46007;-80
2023/10/13 03:33:29;;;;;;;8.40;4.37;;;;;;;19.52;100.00;101873.25;143730;572;47013;-81
2023/10/13 03:36:04;;;;;;;10.88;3.85;;;;;;;19.45;100.00;101873.34;143729;626;47010;-81
2023/10/13 03:38:36;;;;;;;18.15;4.25;;;;;;;19.44;100.00;101876.31;143731;593;46930;-81
2023/10/13 03:41:19;;;;;;;16.08;5.68;;;;;;;19.41;100.00;101883.06;143730;567;46006;-81
2023/10/13 03:43:51;;;;;;;22.40;4.75;;;;;;;19.45;100.00;101864.34;143729;985;47004;-80
2023/10/13 03:46:21;;;;;;;19.83;4.60;;;;;;;19.37;100.00;101865.50;143727;781;47008;-79
2023/10/13 03:48:56;;;;;;;17.45;4.68;;;;;;;19.35;100.00;101876.59;143733;919;45929;-82
2023/10/13 03:51:30;;;;;;;25.25;4.95;;;;;;;19.39;100.00;101869.66;143723;678;49004;-79
2023/10/13 03:53:58;;;;;;;14.23;4.95;;;;;;;19.41;100.00;101877.59;143729;567;46923;-79
2023/10/13 03:56:27;;;;;;;19.42;6.03;;;;;;;19.37;100.00;101873.66;143729;778;47002;-80
2023/10/13 03:58:58;;;;;;;20.52;6.15;;;;;;;19.35;100.00;101870.34;143730;572;47002;-80
2023/10/13 04:01:31;;;;;;;12.37;5.70;;;;;;;19.30;100.00;101872.91;143727;569;47006;-80
2023/10/13 04:04:09;;;;;;;14.85;5.47;;;;;;;19.20;100.00;101876.16;143719;820;48924;-82
2023/10/13 04:15:21;;;;;;;12.07;4.85;;;;;;;19.14;100.00;101868.94;143733;752;46006;-80
2023/10/13 04:17:50;;;;;;;11.23;4.00;;;;;;;19.12;100.00;101880.03;143727;873;46010;-80
2023/10/13 04:20:32;;;;;;;16.23;4.95;;;;;;;19.12;100.00;101880.03;143730;978;46010;-81
2023/10/13 04:23:18;;;;;;;20.20;4.43;;;;;;;19.04;100.00;101873.00;143726;586;48006;-80
2023/10/13 04:26:07;;;;;;;17.45;5.32;;;;;;;19.09;100.00;101883.22;143730;748;47004;-81
2023/10/13 04:28:35;;;;;;;16.48;4.82;;;;;;;19.02;100.00;101879.75;143718;573;47009;-80
2023/10/13 04:34:01;;;;;;;10.65;4.90;;;;;;;19.05;100.00;101884.75;143717;986;50002;-80
2023/10/13 04:36:45;;;;;;;10.38;4.37;;;;;;;19.02;100.00;101880.56;143724;982;47004;-80
2023/10/13 04:39:16;;;;;;;11.63;4.25;;;;;;;18.99;100.00;101875.56;143730;585;46011;-81
2023/10/13 04:41:57;;;;;;;9.63;4.20;;;;;;;19.11;100.00;101885.72;143727;872;47004;-80
2023/10/13 04:47:17;;;;;;;12.77;4.50;;;;;;;18.98;100.00;101878.53;143735;984;45010;-79
2023/10/13 04:49:49;;;;;;;;;;;;;;;19.01;100.00;101872.62;143735;980;45931;-80
2023/10/13 04:55:32;;;;;;;16.40;5.32;;;;;;;19.09;100.00;101881.34;143728;980;46006;-81
2023/10/13 04:58:14;;;;;;;10.02;4.20;;;;;;;19.02;100.00;101886.00;143730;982;47006;-81
2023/10/13 05:01:23;;;;;;;13.57;4.90;;;;;;;19.02;100.00;101886.00;143729;944;47010;-81
2023/10/13 05:44:33;;;;;;;25.73;5.12;;;;;;;19.20;100.00;101893.34;143727;980;46010;-78
2023/10/13 05:48:19;;;;;;;20.20;5.47;;;;;;;19.93;100.00;101948.00;143725;602;46008;-78
2023/10/13 05:50:57;;;;;;;14.57;4.10;;;;;;;19.96;100.00;101941.22;143732;574;46002;-79
2023/10/13 06:29:01;;;;;;;14.68;4.97;;;;;;;20.78;100.00;101967.06;143728;984;48004;-79
2023/10/13 06:31:28;;;;;;;13.40;5.05;;;;;;;20.79;100.00;101962.44;143732;812;45012;-79
2023/10/13 06:33:55;;;;;;;13.48;5.05;;;;;;;20.86;100.00;101963.97;143730;575;46004;-76
2023/10/13 06:36:22;;;;;;;17.23;4.78;;;;;;;21.00;100.00;101964.53;143724;573;53006;-77
2023/10/13 06:38:55;;;;;;;12.82;5.00;;;;;;;21.07;100.00;101963.59;143731;673;45922;-77
2023/10/13 06:41:30;;;;;;;10.43;5.40;;;;;;;21.19;100.00;101972.59;143730;595;46004;-77
2023/10/13 06:43:59;;;;;;;13.45;5.70;;;;;;;21.28;100.00;101971.19;143724;570;48006;-79
2023/10/13 06:46:28;;;;;;;13.50;5.35;;;;;;;21.40;100.00;101968.44;143733;568;45010;-78
2023/10/13 06:48:55;;;;;;;21.67;7.10;;;;;;;21.51;100.00;101969.47;143728;573;47012;-80
2023/10/13 06:51:25;;;;;;;20.35;6.75;;;;;;;21.56;100.00;101966.84;143730;589;46007;-78
2023/10/13 06:53:56;;;;;;;15.98;7.00;;;;;;;21.65;100.00;101964.59;143729;709;45924;-78
2023/10/13 06:56:32;;;;;;;15.40;6.90;;;;;;;21.74;100.00;101960.41;143734;603;45010;-79
2023/10/13 06:59:06;;;;;;;18.12;7.45;;;;;;;21.82;100.00;101967.38;143731;587;45921;-80
2023/10/13 07:01:39;;;;;;;15.13;7.43;;;;;;;21.95;100.00;101972.56;143722;749;48004;-79
2023/10/13 07:04:16;;;;;;;14.67;8.27;;;;;;;22.05;100.00;101966.44;143729;588;47008;-78
2023/10/13 07:06:49;;;;;;;18.98;8.27;;;;;;;22.15;100.00;101962.25;143734;579;45010;-79
2023/10/13 07:12:27;;;;;;;18.08;8.10;;;;;;;22.41;100.00;101960.78;143724;596;47006;-78
2023/10/13 07:15:04;;;;;;;26.33;8.80;;;;;;;22.51;100.00;101960.97;143727;579;46004;-77
2023/10/13 07:17:37;;;;;;;21.95;9.65;;;;;;;22.43;100.00;101966.03;143734;597;45010;-77
2023/10/13 07:20:15;;;;;;;18.70;9.88;;;;;;;22.40;100.00;101967.34;143724;586;47010;-79
2023/10/13 07:22:54;;;;;;;15.35;8.88;;;;;;;22.58;100.00;101957.25;143730;692;45012;-79
2023/10/13 07:25:25;;;;;;;16.95;9.52;;;;;;;22.72;100.00;101955.81;143728;581;45927;-78
2023/10/13 07:27:54;;;;;;;20.65;8.85;;;;;;;22.86;100.00;101959.88;143728;597;47004;-79
2023/10/13 07:30:26;;;;;;;15.23;8.07;;;;;;;23.02;100.00;101955.44;143729;637;45926;-79
2023/10/13 07:32:53;;;;;;;24.08;9.05;;;;;;;23.11;100.00;101963.22;143729;590;46006;-79
2023/10/13 07:35:24;;;;;;;17.05;8.35;;;;;;;23.21;100.00;101962.56;143724;582;47017;-79
2023/10/13 07:37:55;;;;;;;17.40;8.10;;;;;;;23.26;100.00;101947.00;143732;579;45010;-80
2023/10/13 07:40:39;;;;;;;13.13;8.70;;;;;;;23.36;100.00;101961.94;143728;612;45925;-81
2023/10/13 07:43:10;;;;;;;21.58;8.50;;;;;;;23.35;100.00;101955.59;143725;585;47006;-81
2023/10/13 07:45:41;;;;;;;15.50;7.30;;;;;;;23.50;100.00;101948.66;143726;616;46000;-80
2023/10/13 07:48:18;;;;;;;12.55;6.37;;;;;;;23.65;100.00;101951.56;143731;597;46000;-81
2023/10/13 07:50:46;;;;;;;13.20;4.47;;;;;;;23.75;100.00;101956.34;143727;692;46008;-80
2023/10/13 07:53:19;;;;;;;9.45;5.00;;;;;;;23.86;100.00;101955.37;143731;589;45012;-80
2023/10/13 07:55:55;;;;;;;8.57;5.05;;;;;;;24.06;100.00;101965.75;143729;569;45925;-82
2023/10/13 07:58:25;;;;;;;11.15;4.90;;;;;;;24.16;100.00;101962.28;143728;632;47002;-80
2023/10/13 08:01:07;;;;;;;7.50;4.90;;;;;;;24.35;100.00;101970.13;143730;589;45010;-81
2023/10/13 08:03:44;;;;;;;10.60;4.93;;;;;;;24.47;100.00;101961.72;143728;649;46002;-81
2023/10/13 08:06:20;;;;;;;8.80;5.07;;;;;;;24.59;100.00;101962.34;143723;580;48006;-78
2023/10/13 08:08:53;;;;;;;8.50;4.70;;;;;;;24.72;100.00;101960.28;143730;596;47000;-78
2023/10/13 08:11:34;;;;;;;7.32;4.97;;;;;;;24.83;100.00;101968.31;143726;655;46008;-78
2023/10/13 08:14:22;;;;;;;5.55;4.65;;;;;;;25.00;100.00;101963.75;143727;580;46002;-79
2023/10/13 08:16:53;;;;;;;6.68;4.57;;;;;;;25.24;100.00;101962.22;143727;575;46006;-79
2023/10/13 08:19:28;;;;;;;11.52;5.55;;;;;;;25.37;100.00;101954.59;143729;581;46004;-78
2023/10/13 08:21:59;;;;;;;13.98;6.50;;;;;;;25.47;100.00;101953.84;143725;648;47010;-78
2023/10/13 08:24:55;;;;;;;19.15;7.40;;;;;;;25.57;100.00;101951.09;143726;569;46004;-79
2023/10/13 08:27:48;;;;;;;14.20;6.37;;;;;;;25.64;100.00;101946.19;143727;566;46006;-77
2023/10/13 08:30:28;;;;;;;17.77;6.57;;;;;;;25.80;100.00;101943.47;143729;569;46002;-79
2023/10/13 08:32:56;;;;;;;11.55;6.30;;;;;;;25.93;100.00;101942.94;143724;568;46010;-78
2023/10/13 08:38:17;;;;;;;12.65;6.22;;;;;;;26.03;100.00;101947.63;143723;574;47006;-79
2023/10/13 08:46:29;;;;;;;15.48;5.90;;;;;;;26.27;100.00;101934.19;143722;593;47002;-80
2023/10/13 08:55:02;;;;;;;14.63;6.43;;;;;;;27.00;100.00;101921.13;143731;591;45927;-78
2023/10/13 08:57:33;;;;;;;13.73;5.87;;;;;;;28.83;100.00;101828.34;143729;570;46008;-77
2023/10/13 09:00:26;;;;;;;9.93;5.93;;;;;;;34.22;75.37;101765.06;143729;568;45922;-78
2023/10/13 09:02:59;;;;;;;21.55;6.72;;;;;;;38.51;52.52;101751.03;143718;592;52013;-79
2023/10/13 09:08:35;;;;;;;17.02;5.68;;;;;;;42.45;39.29;101726.75;143726;643;47002;-80
2023/10/13 09:11:11;;;;;;;12.18;5.62;;;;;;;43.91;35.88;101715.28;143725;662;46006;-78
2023/10/13 09:13:44;;;;;;;13.57;5.72;;;;;;;44.46;33.04;101727.31;143732;586;45010;-78
2023/10/13 09:19:05;;;;;;;12.43;5.80;;;;;;;41.75;33.93;101879.78;143730;582;46004;-78
2023/10/13 09:21:48;;;;;;;15.50;6.15;;;;;;;38.87;38.00;101885.81;143728;656;45926;-78
2023/10/13 09:24:21;;;;;;;9.88;5.43;;;;;;;36.91;41.52;101890.87;143731;606;46016;-78
2023/10/13 09:26:55;;;;;;;11.60;5.10;;;;;;;35.92;43.47;101887.97;143726;584;49004;-79
2023/10/13 09:29:24;;;;;;;12.60;5.85;;;;;;;35.14;45.26;101888.28;143727;583;47004;-79
2023/10/13 09:32:04;;;;;;;10.30;5.62;;;;;;;34.65;46.89;101887.91;143728;582;45925;-78
2023/10/13 09:34:40;;;;;;;11.35;5.65;;;;;;;34.14;47.74;101888.56;143731;578;46016;-77
2023/10/13 09:37:10;;;;;;;12.65;5.15;;;;;;;33.97;49.55;101879.09;143726;654;47008;-78
2023/10/13 09:39:48;;;;;;;11.93;4.80;;;;;;;33.66;50.17;101877.31;143730;587;45012;-78
2023/10/13 09:42:18;;;;;;;10.80;4.87;;;;;;;33.27;50.47;101879.09;143724;576;47007;-78
2023/10/13 09:44:55;;;;;;;6.97;4.97;;;;;;;33.02;51.20;101883.47;143725;650;48000;-77
2023/10/13 09:47:36;;;;;;;9.77;4.57;;;;;;;32.59;52.27;101877.44;143727;572;47010;-78
2023/10/13 09:50:13;;;;;;;11.27;4.68;;;;;;;32.51;52.15;101875.47;143731;573;46002;-79
2023/10/13 09:52:43;;;;;;;8.60;4.80;;;;;;;32.30;51.79;101872.44;143730;633;47002;-78
2023/10/13 09:55:20;;;;;;;8.00;4.15;;;;;;;32.03;51.64;101861.16;143722;591;47004;-77
2023/10/13 09:57:57;;;;;;;9.07;4.45;;;;;;;31.86;51.79;101856.28;143729;575;46010;-77
2023/10/13 10:03:30;;;;;;;11.93;4.50;;;;;;;31.45;51.89;101852.53;143718;599;48000;-78
2023/10/13 10:06:04;;;;;;;10.82;4.03;;;;;;;31.56;55.40;101841.16;143732;700;45010;-76
2023/10/13 10:08:48;;;;;;;11.60;4.60;;;;;;;31.55;54.98;101836.75;143726;580;47008;-79
2023/10/13 10:11:45;;;;;;;9.43;5.20;;;;;;;31.31;54.72;101835.12;143723;605;47004;-77
2023/10/13 10:14:28;;;;;;;12.57;5.35;;;;;;;31.33;54.02;101826.47;143727;586;46006;-79
2023/10/13 10:17:09;;;;;;;8.50;5.55;;;;;;;31.31;55.12;101832.34;143726;572;48002;-77
2023/10/13 10:19:57;;;;;;;10.13;5.07;;;;;;;31.24;53.08;101829.97;143724;608;47010;-77
2023/10/13 10:22:33;;;;;;;10.40;4.97;;;;;;;31.17;53.98;101821.28;143730;607;45012;-77
2023/10/13 10:25:07;;;;;;;20.08;4.82;;;;;;;31.04;53.60;101822.91;143723;590;47006;-77
2023/10/13 10:27:35;;;;;;;10.85;5.03;;;;;;;31.06;56.31;101811.53;143725;610;48002;-78
2023/10/13 10:30:03;;;;;;;10.85;5.25;;;;;;;30.87;58.87;101814.41;143729;575;45923;-78
2023/10/13 10:32:48;;;;;;;12.75;5.60;;;;;;;30.30;62.01;101821.94;143711;609;50004;-77
2023/10/13 10:35:20;;;;;;;13.25;5.72;;;;;;;30.24;64.77;101823.97;143729;591;45922;-77
2023/10/13 10:38:11;;;;;;;8.75;4.90;;;;;;;30.27;66.24;101822.53;143732;583;46004;-78
2023/10/13 10:41:24;;;;;;;21.02;5.18;;;;;;;30.34;68.43;101825.72;143727;721;45923;-77
2023/10/13 10:43:51;;;;;;;11.88;4.47;;;;;;;30.16;67.13;101823.87;143724;608;47004;-77
2023/10/13 10:46:40;;;;;;;10.93;4.87;;;;;;;30.08;65.83;101820.66;143726;616;47006;-77
2023/10/13 10:49:08;;;;;;;8.07;4.93;;;;;;;29.88;68.02;101816.28;143725;585;47002;-78
2023/10/13 10:51:44;;;;;;;7.53;4.93;;;;;;;29.98;69.10;101814.47;143729;601;45924;-77
2023/10/13 10:54:21;;;;;;;11.25;5.22;;;;;;;30.15;69.78;101823.03;143727;584;48002;-78
2023/10/13 10:56:54;;;;;;;11.80;6.00;;;;;;;30.16;70.59;101804.47;143730;584;45011;-78
2023/10/13 10:59:24;;;;;;;8.57;4.90;;;;;;;30.06;71.65;101799.94;143732;613;45010;-78
2023/10/13 11:01:51;;;;;;;11.60;5.15;;;;;;;30.01;73.06;101794.50;143732;592;45923;-76
2023/10/13 11:04:18;;;;;;;7.62;4.53;;;;;;;30.00;73.77;101790.06;143722;610;48004;-78
2023/10/13 11:07:00;;;;;;;6.65;4.97;;;;;;;29.90;74.25;101791.03;143726;592;46006;-79
2023/10/13 11:09:32;;;;;;;7.20;5.32;;;;;;;29.70;75.52;101793.03;143731;594;46004;-77
2023/10/13 11:12:25;;;;;;;8.65;5.00;;;;;;;29.48;74.92;101780.66;143720;766;48008;-79
2023/10/13 11:15:22;;;;;;;9.27;5.13;;;;;;;29.63;75.38;101778.78;143730;706;45012;-79
2023/10/13 11:17:54;;;;;;;11.12;6.07;;;;;;;29.67;78.88;101779.00;143729;601;45922;-79
2023/10/13 11:20:35;;;;;;;13.18;5.35;;;;;;;29.49;76.83;101776.78;143727;583;47004;-78
2023/10/13 11:23:04;;;;;;;9.52;5.78;;;;;;;29.28;79.13;101776.25;143723;572;47008;-77
2023/10/13 11:25:35;;;;;;;11.55;5.60;;;;;;;29.28;76.67;101761.63;143728;610;47002;-78
2023/10/13 11:28:27;;;;;;;10.38;5.45;;;;;;;29.46;77.04;101759.97;143720;749;47007;-78
2023/10/13 11:31:10;;;;;;;11.55;6.03;;;;;;;29.53;76.52;101763.19;143730;570;47004;-78
2023/10/13 11:33:47;;;;;;;11.55;5.87;;;;;;;29.54;78.64;101764.81;143729;569;45924;-79
2023/10/13 11:36:26;;;;;;;18.77;5.75;;;;;;;29.48;79.97;101754.94;143721;601;47004;-80
2023/10/13 11:38:57;;;;;;;14.98;5.82;;;;;;;29.37;80.66;101759.03;143728;577;45921;-81
2023/10/13 11:41:32;;;;;;;9.38;6.47;;;;;;;29.15;83.11;101750.16;143729;610;48009;-82
2023/10/13 11:47:32;;;;;;;11.23;5.40;;;;;;;29.25;87.10;101760.25;143729;656;46006;-79
2023/10/13 11:49:58;;;;;;;12.37;5.80;;;;;;;29.13;84.98;101752.41;143723;628;47009;-80
2023/10/13 11:52:26;;;;;;;10.88;5.70;;;;;;;29.22;86.24;101758.09;143724;714;48004;-80
2023/10/13 11:54:53;;;;;;;10.73;5.03;;;;;;;29.03;84.69;101747.84;143729;599;45923;-81
2023/10/13 11:57:21;;;;;;;10.10;5.50;;;;;;;29.13;84.98;101746.88;143723;692;47009;-81
2023/10/13 11:59:54;;;;;;;9.40;5.75;;;;;;;29.05;86.46;101742.03;143729;590;45921;-79
2023/10/13 12:05:11;;;;;;;9.05;4.90;;;;;;;28.69;91.19;101746.09;143728;669;46010;-81
2023/10/13 12:07:51;;;;;;;10.82;5.30;;;;;;;28.75;90.91;101741.38;143721;602;48004;-81
2023/10/13 12:10:33;;;;;;;10.73;5.93;;;;;;;28.79;91.43;101736.06;143726;606;46008;-81
2023/10/13 12:13:05;;;;;;;12.13;6.50;;;;;;;28.62;92.95;101733.75;143721;583;50004;-82
2023/10/13 12:15:48;;;;;;;11.95;6.28;;;;;;;28.72;93.94;101739.16;143727;592;46010;-81
2023/10/13 12:18:15;;;;;;;14.82;6.45;;;;;;;28.74;96.11;101729.47;143724;573;47010;-81
2023/10/13 12:20:45;;;;;;;10.93;5.62;;;;;;;28.74;94.30;101731.44;143728;588;45926;-81
2023/10/13 12:23:19;;;;;;;12.93;5.40;;;;;;;28.65;94.58;101733.16;143732;656;45010;-81
2023/10/13 12:25:57;;;;;;;12.85;5.60;;;;;;;28.63;97.95;101732.66;143727;608;46012;-81
2023/10/13 12:28:26;;;;;;;13.50;5.93;;;;;;;28.58;98.21;101730.78;143720;609;49004;-81
2023/10/13 12:30:57;;;;;;;10.57;5.97;;;;;;;28.52;100.00;101731.94;143724;585;48008;-81
2023/10/13 12:33:27;;;;;;;10.05;5.57;;;;;;;28.45;100.00;101724.03;143731;606;47004;-81
2023/10/13 12:36:06;;;;;;;16.15;6.10;;;;;;;28.32;100.00;101733.88;143728;615;46013;-83
2023/10/13 12:38:51;;;;;;;9.10;5.70;;;;;;;28.24;100.00;101723.47;143722;576;51004;-79
2023/10/13 12:52:33;;;;;;;11.23;5.22;;;;;;;27.97;100.00;101722.91;143723;638;49006;-81
2023/10/13 12:55:06;;;;;;;9.63;5.95;;;;;;;27.98;100.00;101712.66;143729;601;47002;-82
2023/10/13 12:57:34;;;;;;;13.88;6.22;;;;;;;28.01;100.00;101709.34;143725;617;47011;-81
2023/10/13 13:00:16;;;;;;;8.45;6.30;;;;;;;28.04;100.00;101700.47;143730;569;45012;-82
2023/10/13 13:02:43;;;;;;;11.15;5.70;;;;;;;28.04;100.00;101700.47;143726;638;46008;-82
2023/10/13 13:05:13;;;;;;;9.90;5.47;;;;;;;27.91;100.00;101701.16;143730;572;46007;-81
2023/10/13 13:07:47;;;;;;;7.22;5.25;;;;;;;27.94;100.00;101706.91;143718;635;48012;-80
2023/10/13 13:10:15;;;;;;;13.55;5.20;;;;;;;28.01;100.00;101703.81;143729;658;46006;-82
2023/10/13 13:12:42;;;;;;;7.57;4.53;;;;;;;28.03;100.00;101706.28;143726;700;47008;-80
2023/10/13 13:15:09;;;;;;;11.20;4.62;;;;;;;27.88;98.71;101696.22;143729;651;46006;-79
2023/10/13 13:17:40;;;;;;;8.93;4.95;;;;;;;27.75;100.00;101708.78;143729;682;45928;-81
2023/10/13 13:20:11;;;;;;;12.25;4.05;;;;;;;27.74;98.01;101698.84;143722;635;49007;-81
2023/10/13 13:22:39;;;;;;;11.40;4.97;;;;;;;27.77;99.79;101706.56;143726;592;46008;-81
2023/10/13 13:25:08;;;;;;;8.27;4.35;;;;;;;27.66;100.00;101701.16;143722;650;48002;-80
2023/10/13 13:27:36;;;;;;;8.23;5.07;;;;;;;27.69;100.00;101700.56;143727;654;47013;-80
2023/10/13 13:30:11;;;;;;;7.97;4.22;;;;;;;27.60;100.00;101702.31;143724;673;48006;-80
2023/10/13 13:32:40;;;;;;;10.65;4.55;;;;;;;27.45;100.00;101705.97;143730;696;45926;-79
2023/10/13 13:35:08;;;;;;;6.87;4.10;;;;;;;27.37;100.00;101704.66;143730;674;46006;-80
2023/10/13 13:37:37;;;;;;;8.23;3.97;;;;;;;27.40;100.00;101689.50;143728;607;47012;-80
2023/10/13 13:40:18;;;;;;;8.27;3.65;;;;;;;27.41;99.03;101696.66;143723;722;51004;-81
2023/10/13 13:42:45;;;;;;;6.57;3.65;;;;;;;27.42;96.12;101701.06;143728;701;46009;-80
2023/10/13 13:45:27;;;;;;;6.05;3.70;;;;;;;27.36;94.66;101699.47;143724;630;52006;-80
2023/10/13 13:47:54;;;;;;;6.97;3.65;;;;;;;27.24;92.88;101688.78;143719;702;51010;-78
2023/10/13 13:50:26;;;;;;;6.65;3.30;;;;;;;27.14;92.91;101692.44;143727;589;46006;-80
2023/10/13 13:52:57;;;;;;;4.20;3.20;;;;;;;27.05;92.67;101694.19;143729;588;46008;-79
2023/10/13 13:55:28;;;;;;;7.97;3.50;;;;;;;27.02;92.72;101692.81;143734;709;45020;-80
2023/10/13 13:57:58;;;;;;;5.87;3.50;;;;;;;27.00;94.10;101694.22;143720;704;48010;-80
2023/10/13 14:00:37;;;;;;;7.57;3.30;;;;;;;26.92;95.81;101693.69;143720;662;48006;-80
2023/10/13 14:03:05;;;;;;;7.28;3.45;;;;;;;27.03;96.33;101704.69;143729;725;46004;-80
2023/10/13 14:05:32;;;;;;;4.87;3.33;;;;;;;26.91;96.51;101696.75;143729;699;47006;-80
2023/10/13 14:08:00;;;;;;;6.75;3.40;;;;;;;26.88;96.08;101691.81;143727;706;47012;-79
2023/10/13 14:10:33;;;;;;;8.00;3.58;;;;;;;26.87;96.88;101696.53;143726;570;47015;-81
2023/10/13 14:13:15;;;;;;;5.10;3.80;;;;;;;26.99;97.15;101687.91;143726;649;46926;-79
2023/10/13 14:15:44;;;;;;;8.85;4.03;;;;;;;26.94;96.99;101688.72;143731;655;46004;-80
2023/10/13 14:18:17;;;;;;;7.87;3.83;;;;;;;27.02;96.75;101678.22;143730;574;46006;-80
2023/10/13 14:20:44;;;;;;;10.00;3.40;;;;;;;27.01;96.52;101685.66;143719;673;48004;-80
2023/10/13 14:23:14;;;;;;;6.95;3.50;;;;;;;27.06;96.22;101690.31;143727;576;48008;-80
2023/10/13 14:25:44;;;;;;;16.73;4.20;;;;;;;27.08;96.08;101694.44;143727;662;47006;-80
2023/10/13 14:28:17;;;;;;;14.18;3.62;;;;;;;27.09;93.92;101690.56;143719;596;52004;-81
2023/10/13 14:30:45;;;;;;;5.85;3.83;;;;;;;27.15;93.61;101680.31;143709;649;56004;-79
2023/10/13 14:33:12;;;;;;;7.80;4.05;;;;;;;27.13;93.84;101682.53;143722;728;49926;-79
2023/10/13 14:35:41;;;;;;;7.57;3.65;;;;;;;27.05;96.93;101683.97;143726;657;48004;-80
2023/10/13 14:38:13;;;;;;;8.98;4.12;;;;;;;27.01;94.99;101682.09;143728;568;47010;-80
2023/10/13 14:40:40;;;;;;;8.90;3.53;;;;;;;27.03;94.06;101679.88;143725;619;47004;-80
2023/10/13 14:43:08;;;;;;;8.55;3.65;;;;;;;27.03;95.15;101680.69;143730;588;45927;-80
2023/10/13 14:45:36;;;;;;;7.47;3.87;;;;;;;27.04;94.67;101678.75;143728;568;48004;-80
2023/10/13 14:48:05;;;;;;;7.37;4.20;;;;;;;27.04;95.97;101679.56;143723;675;51926;-81
2023/10/13 14:50:33;;;;;;;6.68;4.15;;;;;;;26.99;96.67;101684.31;143729;622;46002;-80
2023/10/13 14:53:00;;;;;;;5.12;3.92;;;;;;;26.98;96.79;101680.72;143723;710;47006;-80
2023/10/13 14:55:38;;;;;;;6.28;3.78;;;;;;;26.95;97.18;101681.31;143733;616;46004;-79
2023/10/13 14:58:07;;;;;;;9.30;4.28;;;;;;;26.85;97.77;101679.44;143727;730;47010;-79
2023/10/13 15:00:34;;;;;;;10.35;4.18;;;;;;;26.72;97.98;101677.28;143724;627;48002;-80
2023/10/13 15:03:01;;;;;;;6.15;3.90;;;;;;;26.73;98.66;101676.19;143731;612;45927;-79
2023/10/13 15:05:33;;;;;;;6.97;4.55;;;;;;;26.81;99.14;101674.78;143720;631;49002;-80
2023/10/13 15:08:00;;;;;;;7.28;4.28;;;;;;;26.83;100.00;101678.09;143728;638;47002;-80
2023/10/13 15:10:26;;;;;;;7.80;4.10;;;;;;;26.76;99.19;101676.44;143727;591;47002;-80
2023/10/13 15:12:53;;;;;;;6.60;3.30;;;;;;;26.66;98.56;101679.22;143730;686;45928;-80
2023/10/13 15:15:20;;;;;;;8.77;4.12;;;;;;;26.60;97.63;101672.12;143728;630;47004;-80
2023/10/13 15:17:50;;;;;;;8.93;4.35;;;;;;;26.57;97.26;101678.19;143730;673;46008;-80
2023/10/13 15:20:17;;;;;;;9.00;4.10;;;;;;;26.49;98.08;101677.66;143732;670;45012;-80
2023/10/13 15:22:59;;;;;;;6.43;3.97;;;;;;;26.61;100.00;101680.09;143731;671;45928;-81
2023/10/13 15:25:28;;;;;;;15.65;3.90;;;;;;;26.58;100.00;101685.34;143732;668;46002;-80
2023/10/13 15:28:08;;;;;;;6.07;3.92;;;;;;;26.64;100.00;101684.22;143720;646;50010;-80
2023/10/13 15:30:45;;;;;;;7.43;4.07;;;;;;;26.66;100.00;101684.75;143725;616;48002;-80
2023/10/13 15:33:12;;;;;;;5.82;3.60;;;;;;;26.66;97.94;101684.75;143724;595;48000;-80
2023/10/13 15:35:42;;;;;;;8.60;4.55;;;;;;;26.56;97.95;101688.41;143730;604;47004;-79
2023/10/13 15:38:12;;;;;;;6.80;4.07;;;;;;;26.59;100.00;101684.25;143730;678;45926;-80
2023/10/13 15:40:44;;;;;;;9.95;4.43;;;;;;;26.49;99.22;101683.19;143731;698;45926;-79
2023/10/13 15:43:12;;;;;;;11.32;4.15;;;;;;;26.51;100.00;101688.44;143727;586;47006;-80
2023/10/13 15:45:39;;;;;;;11.32;4.37;;;;;;;26.46;100.00;101688.44;143733;586;46004;-78
2023/10/13 15:48:06;;;;;;;12.73;4.72;;;;;;;26.42;100.00;101690.09;143729;591;47009;-81
2023/10/13 15:50:40;;;;;;;13.88;4.47;;;;;;;26.37;100.00;101693.72;143731;616;46004;-79
2023/10/13 15:53:07;;;;;;;8.85;3.95;;;;;;;26.35;100.00;101695.13;143730;715;46006;-80
2023/10/13 15:55:37;;;;;;;12.00;4.62;;;;;;;26.25;100.00;101696.78;143732;573;47002;-79
2023/10/13 15:58:08;;;;;;;10.80;4.10;;;;;;;26.17;100.00;101703.69;143725;737;47010;-79
2023/10/13 16:00:38;;;;;;;21.48;5.65;;;;;;;26.11;100.00;101704.84;143731;629;46002;-80
2023/10/13 16:03:11;;;;;;;17.35;7.62;;;;;;;26.08;100.00;101699.03;143727;600;48007;-80
2023/10/13 16:05:42;;;;;;;32.13;16.58;;;;;;;26.03;100.00;101699.88;143733;567;46002;-80
2023/10/13 16:08:11;;;;;;;27.75;14.40;;;;;;;26.01;100.00;101704.81;143727;608;46022;-79